createdAt,value
2019-04-23T00:00:24.012Z,11.60
2019-04-23T00:08:07.567Z,11.50
2019-04-23T00:10:28.714Z,11.50
2019-04-23T00:12:58.878Z,11.50
2019-04-23T00:15:55.285Z,11.40
2019-04-23T00:18:22.749Z,11.40
2019-04-23T00:20:47.922Z,11.40
2019-04-23T00:23:20.762Z,11.40
2019-04-23T00:26:13.740Z,11.40
2019-04-23T00:28:27.382Z,11.30
2019-04-23T00:31:15.238Z,11.30
2019-04-23T00:33:34.568Z,11.30
2019-04-23T00:36:10.628Z,11.20
2019-04-23T00:41:01.203Z,11.20
2019-04-23T00:43:27.089Z,11.10
2019-04-23T00:45:55.209Z,11.10
2019-04-23T00:53:32.751Z,11.00
2019-04-23T00:58:38.275Z,11.00
2019-04-23T01:01:08.570Z,11.00
2019-04-23T01:03:25.387Z,11.00
2019-04-23T01:05:59.145Z,11.00
2019-04-23T01:08:31.822Z,10.90
2019-04-23T01:11:01.920Z,11.00
2019-04-23T01:13:39.575Z,11.00
2019-04-23T01:16:08.956Z,11.00
2019-04-23T01:18:46.791Z,10.90
2019-04-23T01:20:54.042Z,10.90
2019-04-23T01:23:20.636Z,10.90
2019-04-23T01:25:59.032Z,10.90
2019-04-23T01:28:50.258Z,11.00
2019-04-23T01:33:51.444Z,10.90
2019-04-23T01:36:21.761Z,10.90
2019-04-23T01:38:55.994Z,10.90
2019-04-23T01:41:25.268Z,10.80
2019-04-23T01:43:47.837Z,10.80
2019-04-23T01:46:25.380Z,10.80
2019-04-23T01:51:20.082Z,10.80
2019-04-23T01:53:45.797Z,10.80
2019-04-23T01:56:22.964Z,10.70
2019-04-23T01:58:44.029Z,10.70
2019-04-23T02:01:20.739Z,10.70
2019-04-23T02:03:52.273Z,10.70
2019-04-23T02:06:20.512Z,10.60
2019-04-23T02:11:13.169Z,10.60
2019-04-23T02:13:55.375Z,10.60
2019-04-23T02:16:21.013Z,10.60
2019-04-23T02:18:56.741Z,10.60
2019-04-23T02:21:39.953Z,10.50
2019-04-23T02:24:06.752Z,10.60
2019-04-23T02:31:44.537Z,10.50
2019-04-23T02:34:07.214Z,10.50
2019-04-23T02:36:22.756Z,10.40
2019-04-23T02:41:41.572Z,10.40
2019-04-23T02:44:09.124Z,10.40
2019-04-23T02:46:22.725Z,10.40
2019-04-23T02:49:06.401Z,10.40
2019-04-23T02:51:39.643Z,10.40
2019-04-23T03:06:29.877Z,10.20
2019-04-23T03:11:32.519Z,10.20
2019-04-23T03:14:03.719Z,10.20
2019-04-23T03:16:54.964Z,10.20
2019-04-23T03:19:21.817Z,10.20
2019-04-23T03:39:40.191Z,10.00
2019-04-23T03:42:02.553Z,10.00
2019-04-23T03:44:39.902Z,10.00
2019-04-23T03:47:16.284Z,10.00
2019-04-23T03:49:41.045Z,10.00
2019-04-23T03:52:14.041Z,10.00
2019-04-23T04:02:31.396Z,10.00
2019-04-23T04:04:45.273Z,9.90
2019-04-23T04:07:27.906Z,9.90
2019-04-23T04:09:47.918Z,9.90
2019-04-23T04:12:29.393Z,10.00
2019-04-23T04:14:57.585Z,10.00
2019-04-23T04:17:20.150Z,9.90
2019-04-23T04:20:01.513Z,9.90
2019-04-23T04:29:54.491Z,10.00
2019-04-23T04:32:15.023Z,10.00
2019-04-23T04:42:14.878Z,10.10
2019-04-23T04:47:36.193Z,10.10
2019-04-23T04:54:55.842Z,10.20
2019-04-23T05:10:25.180Z,10.40
2019-04-23T05:15:02.686Z,10.40
2019-04-23T05:17:42.187Z,10.40
2019-04-23T05:20:09.814Z,10.40
2019-04-23T05:22:40.811Z,10.50
2019-04-23T05:24:57.238Z,10.50
2019-04-23T05:27:37.285Z,10.50
2019-04-23T05:30:03.224Z,10.60
2019-04-23T05:32:27.076Z,10.60
2019-04-23T05:35:06.727Z,10.70
2019-04-23T05:37:40.479Z,10.70
2019-04-23T05:40:08.680Z,10.70
2019-04-23T05:42:26.549Z,10.80
2019-04-23T05:45:00.917Z,10.90
2019-04-23T05:47:29.263Z,10.90
2019-04-23T05:50:02.113Z,10.90
2019-04-23T05:52:29.765Z,11.00
2019-04-23T05:57:29.897Z,11.10
2019-04-23T05:59:54.721Z,11.10
2019-04-23T06:02:35.888Z,11.10
2019-04-23T06:04:59.142Z,11.20
2019-04-23T06:07:43.431Z,11.20
2019-04-23T06:09:59.443Z,11.30
2019-04-23T06:12:26.970Z,11.40
2019-04-23T06:14:57.559Z,11.50
2019-04-23T06:17:27.449Z,11.60
2019-04-23T06:20:04.318Z,13.00
2019-04-23T06:25:01.745Z,17.10
2019-04-23T06:27:27.343Z,18.90
2019-04-23T06:29:57.420Z,20.10
2019-04-23T06:34:58.181Z,21.80
2019-04-23T06:37:38.557Z,22.70
2019-04-23T06:44:58.447Z,24.20
2019-04-23T06:47:24.794Z,24.50
2019-04-23T06:49:55.546Z,24.60
2019-04-23T06:52:21.707Z,25.00
2019-04-23T06:57:27.003Z,25.90
2019-04-23T06:59:54.730Z,26.00
2019-04-23T07:02:26.166Z,25.90
2019-04-23T07:10:05.457Z,25.70
2019-04-23T07:12:44.795Z,25.60
2019-04-23T07:14:55.440Z,25.80
2019-04-23T07:17:25.061Z,26.40
2019-04-23T07:19:58.467Z,27.10
2019-04-23T07:22:23.215Z,27.50
2019-04-23T07:24:52.863Z,27.70
2019-04-23T07:27:24.689Z,27.80
2019-04-23T07:30:02.136Z,27.90
2019-04-23T07:32:23.692Z,28.20
2019-04-23T07:35:04.515Z,28.00
2019-04-23T07:37:22.332Z,27.80
2019-04-23T07:40:22.977Z,28.00
2019-04-23T07:42:31.024Z,28.20
2019-04-23T07:45:02.096Z,28.30
2019-04-23T07:48:02.055Z,28.30
2019-04-23T07:50:35.227Z,28.50
2019-04-23T07:53:01.938Z,29.00
2019-04-23T07:55:25.490Z,29.70
2019-04-23T07:58:00.728Z,29.90
2019-04-23T08:00:29.761Z,29.60
2019-04-23T08:02:57.856Z,29.50
2019-04-23T08:07:55.511Z,29.70
2019-04-23T08:10:29.458Z,29.50
2019-04-23T08:15:28.132Z,26.50
2019-04-23T08:17:53.045Z,24.40
2019-04-23T08:20:22.788Z,22.50
2019-04-23T08:22:53.764Z,20.90
2019-04-23T08:25:39.461Z,19.80
2019-04-23T08:28:12.091Z,19.10
2019-04-23T08:30:32.261Z,18.50
2019-04-23T08:33:04.282Z,18.50
2019-04-23T08:35:33.891Z,19.30
2019-04-23T08:40:33.786Z,22.40
2019-04-23T08:45:51.284Z,25.10
2019-04-23T08:50:44.087Z,27.30
2019-04-23T08:56:05.113Z,27.60
2019-04-23T08:58:25.514Z,27.50
2019-04-23T09:03:27.685Z,27.50
2019-04-23T09:05:57.650Z,27.70
2019-04-23T09:08:27.744Z,28.30
2019-04-23T09:11:04.650Z,28.50
2019-04-23T09:15:56.534Z,28.20
2019-04-23T09:20:58.081Z,28.20
2019-04-23T09:23:34.412Z,28.10
2019-04-23T09:28:38.687Z,28.90
2019-04-23T09:31:05.191Z,29.10
2019-04-23T09:34:00.049Z,29.40
2019-04-23T09:36:22.291Z,29.40
2019-04-23T09:39:06.136Z,28.90
2019-04-23T09:41:39.926Z,29.00
2019-04-23T09:47:07.075Z,29.20
2019-04-23T09:49:34.183Z,29.00
2019-04-23T09:52:11.175Z,28.70
2019-04-23T09:54:32.555Z,28.30
2019-04-23T09:56:57.057Z,28.20
2019-04-23T09:59:47.279Z,28.50
2019-04-23T10:01:50.154Z,29.10
2019-04-23T10:04:19.422Z,29.20
2019-04-23T10:06:38.741Z,29.00
2019-04-23T10:09:09.708Z,28.60
2019-04-23T10:11:37.372Z,28.70
2019-04-23T10:14:06.237Z,28.70
2019-04-23T10:16:35.102Z,28.40
2019-04-23T10:19:03.826Z,28.30
2019-04-23T10:21:33.313Z,28.70
2019-04-23T10:24:03.214Z,28.40
2019-04-23T10:26:32.456Z,27.80
2019-04-23T10:29:02.659Z,27.90
2019-04-23T10:31:31.597Z,28.30
2019-04-23T10:34:01.956Z,28.50
2019-04-23T10:36:32.148Z,28.70
2019-04-23T10:39:07.407Z,28.70
2019-04-23T10:41:31.000Z,29.00
2019-04-23T10:44:02.835Z,29.40
2019-04-23T10:46:53.063Z,29.30
2019-04-23T10:49:47.717Z,28.40
2019-04-23T10:52:07.116Z,28.20
2019-04-23T10:56:59.751Z,28.30
2019-04-23T11:02:29.753Z,28.50
2019-04-23T11:04:54.269Z,28.30
2019-04-23T11:07:25.252Z,27.80
2019-04-23T11:12:23.719Z,27.30
2019-04-23T11:14:53.098Z,26.70
2019-04-23T11:17:26.458Z,25.80
2019-04-23T11:20:18.175Z,24.90
2019-04-23T11:22:36.137Z,23.90
2019-04-23T11:24:50.620Z,22.90
2019-04-23T11:27:22.592Z,22.20
2019-04-23T11:29:55.350Z,21.70
2019-04-23T11:32:40.901Z,21.20
2019-04-23T11:35:05.060Z,20.90
2019-04-23T11:37:23.470Z,20.50
2019-04-23T11:39:49.591Z,20.00
2019-04-23T11:42:39.046Z,19.70
2019-04-23T11:44:59.815Z,19.50
2019-04-23T11:47:47.028Z,19.40
2019-04-23T11:52:30.056Z,19.40
2019-04-23T11:54:55.089Z,19.40
2019-04-23T11:57:29.966Z,19.50
2019-04-23T12:00:05.430Z,19.70
2019-04-23T12:02:38.636Z,19.70
2019-04-23T12:05:15.221Z,19.70
2019-04-23T12:07:42.211Z,19.80
2019-04-23T12:10:29.204Z,19.70
2019-04-23T12:12:54.159Z,19.70
2019-04-23T12:20:21.362Z,19.80
2019-04-23T12:22:58.747Z,20.00
2019-04-23T12:25:26.748Z,20.20
2019-04-23T12:27:42.224Z,20.30
2019-04-23T12:30:32.438Z,20.30
2019-04-23T12:37:53.830Z,20.40
2019-04-23T12:40:24.941Z,20.20
2019-04-23T12:45:33.865Z,19.90
2019-04-23T12:58:01.874Z,20.00
2019-04-23T13:00:30.923Z,20.00
2019-04-23T13:02:58.854Z,20.00
2019-04-23T13:05:30.756Z,20.10
2019-04-23T13:08:01.967Z,20.20
2019-04-23T13:13:11.456Z,20.30
2019-04-23T13:15:34.691Z,20.30
2019-04-23T13:18:03.857Z,20.30
2019-04-23T13:28:13.003Z,20.10
2019-04-23T13:34:04.213Z,20.00
2019-04-23T13:38:19.592Z,19.80
2019-04-23T13:43:25.733Z,19.80
2019-04-23T13:50:55.397Z,19.80
2019-04-23T13:53:19.801Z,19.80
2019-04-23T13:55:35.972Z,19.80
2019-04-23T14:01:00.912Z,19.80
2019-04-23T14:03:09.634Z,19.90
2019-04-23T14:05:57.405Z,20.10
2019-04-23T14:08:33.388Z,20.20
2019-04-23T14:11:11.610Z,20.40
2019-04-23T14:16:04.255Z,20.40
2019-04-23T14:20:57.534Z,20.40
2019-04-23T14:23:59.182Z,20.30
2019-04-23T14:26:10.910Z,20.20
2019-04-23T14:28:28.475Z,20.10
2019-04-23T14:33:32.563Z,20.00
2019-04-23T14:35:56.368Z,19.90
2019-04-23T14:41:05.995Z,19.70
2019-04-23T14:43:31.365Z,19.60
2019-04-23T14:46:23.059Z,19.60
2019-04-23T14:48:23.644Z,19.60
2019-04-23T14:51:00.577Z,19.70
2019-04-23T14:53:40.540Z,19.80
2019-04-23T15:01:27.229Z,19.90
2019-04-23T15:03:44.535Z,19.80
2019-04-23T15:13:39.290Z,19.60
2019-04-23T15:18:53.039Z,19.50
2019-04-23T15:28:27.057Z,20.10
2019-04-23T15:31:46.635Z,20.20
2019-04-23T15:34:09.199Z,20.10
2019-04-23T15:39:02.335Z,19.80
2019-04-23T15:41:27.475Z,19.70
2019-04-23T15:43:52.268Z,19.70
2019-04-23T15:46:20.162Z,19.70
2019-04-23T15:48:57.547Z,19.60
2019-04-23T15:53:41.031Z,19.50
2019-04-23T15:56:33.942Z,19.40
2019-04-23T15:58:58.228Z,19.40
2019-04-23T16:03:21.635Z,19.30
2019-04-23T16:05:57.497Z,19.30
2019-04-23T16:09:02.744Z,19.30
2019-04-23T16:11:41.329Z,19.20
2019-04-23T16:14:10.216Z,19.20
2019-04-23T16:16:34.350Z,19.20
2019-04-23T16:19:07.651Z,19.10
2019-04-23T16:21:43.638Z,19.00
2019-04-23T16:24:06.021Z,19.00
2019-04-23T16:31:34.585Z,18.90
2019-04-23T16:36:43.890Z,18.80
2019-04-23T16:39:15.087Z,18.70
2019-04-23T16:44:24.179Z,18.60
2019-04-23T16:46:49.728Z,18.60
2019-04-23T16:49:17.855Z,18.60
2019-04-23T16:54:24.645Z,18.50
2019-04-23T17:00:02.809Z,18.30
2019-04-23T17:02:40.578Z,18.20
2019-04-23T17:04:47.258Z,18.10
2019-04-23T17:07:07.096Z,18.10
2019-04-23T17:09:54.228Z,18.00
2019-04-23T17:12:15.026Z,17.80
2019-04-23T17:14:50.194Z,17.60
2019-04-23T17:17:34.495Z,17.50
2019-04-23T17:20:10.794Z,17.30
2019-04-23T17:22:39.075Z,17.20
2019-04-23T17:25:15.970Z,17.10
2019-04-23T17:27:39.090Z,17.20
2019-04-23T17:30:11.517Z,17.10
2019-04-23T17:33:04.323Z,17.10
2019-04-23T17:35:24.305Z,17.10
2019-04-23T17:38:14.873Z,17.00
2019-04-23T17:40:23.322Z,17.10
2019-04-23T17:43:01.268Z,17.10
2019-04-23T17:45:32.228Z,17.10
2019-04-23T17:48:12.951Z,17.20
2019-04-23T17:50:43.965Z,17.20
2019-04-23T17:53:11.435Z,17.20
2019-04-23T17:55:48.383Z,17.20
2019-04-23T17:58:19.488Z,17.20
2019-04-23T18:03:18.078Z,17.20
2019-04-23T18:05:40.813Z,17.20
2019-04-23T18:08:12.510Z,17.20
2019-04-23T18:10:49.457Z,17.30
2019-04-23T18:13:17.214Z,17.30
2019-04-23T18:15:46.328Z,17.30
2019-04-23T18:18:10.244Z,17.30
2019-04-23T18:21:04.738Z,17.30
2019-04-23T18:23:22.176Z,17.30
2019-04-23T18:26:15.722Z,17.30
2019-04-23T18:28:50.168Z,17.30
2019-04-23T18:31:12.920Z,17.30
2019-04-23T18:36:26.150Z,17.20
2019-04-23T18:38:59.251Z,17.10
2019-04-23T18:41:27.259Z,17.10
2019-04-23T18:44:02.886Z,17.10
2019-04-23T18:48:52.840Z,17.10
2019-04-23T18:51:34.476Z,17.00
2019-04-23T18:53:52.527Z,17.00
2019-04-23T18:56:55.835Z,17.00
2019-04-23T18:59:00.880Z,16.90
2019-04-23T19:01:30.980Z,16.90
2019-04-23T19:04:09.771Z,16.90
2019-04-23T19:09:16.324Z,16.80
2019-04-23T19:14:30.723Z,16.80
2019-04-23T19:19:24.465Z,16.90
2019-04-23T19:24:15.863Z,16.80
2019-04-23T19:29:21.821Z,16.80
2019-04-23T19:31:55.324Z,16.70
2019-04-23T19:34:36.276Z,16.60
2019-04-23T19:36:59.232Z,16.60
2019-04-23T19:39:26.368Z,16.50
2019-04-23T19:42:00.608Z,16.50
2019-04-23T19:44:25.004Z,16.50
2019-04-23T19:49:29.592Z,16.40
2019-04-23T19:54:37.870Z,16.30
2019-04-23T19:56:56.792Z,16.30
2019-04-23T19:59:31.726Z,16.20
2019-04-23T20:02:00.459Z,16.20
2019-04-23T20:04:28.862Z,16.20
2019-04-23T20:11:54.774Z,16.20
2019-04-23T20:14:26.223Z,16.20
2019-04-23T20:19:30.152Z,16.20
2019-04-23T20:24:52.616Z,16.10
2019-04-23T20:31:54.695Z,16.10
2019-04-23T20:34:49.613Z,15.90
2019-04-23T20:37:13.907Z,15.90
2019-04-23T20:39:39.683Z,15.90
2019-04-23T20:42:12.385Z,15.80
2019-04-23T20:49:42.857Z,15.70
2019-04-23T20:52:04.772Z,15.70
2019-04-23T20:57:31.805Z,15.60
2019-04-23T20:59:57.252Z,15.60
2019-04-23T21:05:06.738Z,15.60
2019-04-23T21:07:42.020Z,15.60
2019-04-23T21:10:12.547Z,15.60
2019-04-23T21:12:57.819Z,15.60
2019-04-23T21:17:35.352Z,15.50
2019-04-23T21:20:08.581Z,15.40
2019-04-23T21:22:51.043Z,15.40
2019-04-23T21:25:00.273Z,15.40
2019-04-23T21:35:07.734Z,15.30
2019-04-23T21:38:00.754Z,15.30
2019-04-23T21:40:42.462Z,15.30
2019-04-23T21:42:57.627Z,15.20
2019-04-23T21:45:28.574Z,15.20
2019-04-23T21:48:03.180Z,15.20
2019-04-23T21:50:30.162Z,15.10
2019-04-23T21:52:54.887Z,15.10
2019-04-23T21:55:39.063Z,15.00
2019-04-23T22:00:39.357Z,15.00
2019-04-23T22:03:13.389Z,15.00
2019-04-23T22:05:32.577Z,14.90
2019-04-23T22:08:05.734Z,14.90
2019-04-23T22:10:25.633Z,14.90
2019-04-23T22:15:43.179Z,14.90
2019-04-23T22:23:03.790Z,14.80
2019-04-23T22:25:31.946Z,14.80
2019-04-23T22:30:33.924Z,14.80
2019-04-23T22:33:02.846Z,14.80
2019-04-23T22:35:20.348Z,14.80
2019-04-23T22:38:09.650Z,14.80
2019-04-23T22:40:27.858Z,14.80
2019-04-23T22:45:26.568Z,14.80
2019-04-23T22:50:38.562Z,14.90
2019-04-23T22:55:23.094Z,14.90
2019-04-23T23:05:53.033Z,15.00
2019-04-23T23:10:28.114Z,15.00
2019-04-23T23:13:04.167Z,15.00
2019-04-23T23:15:37.168Z,15.00
2019-04-23T23:18:07.204Z,15.00
2019-04-23T23:20:33.145Z,14.90
2019-04-23T23:28:06.845Z,14.90
2019-04-23T23:30:38.184Z,14.90
2019-04-23T23:33:03.711Z,14.80
2019-04-23T23:35:48.877Z,14.90
2019-04-23T23:38:03.874Z,14.80
2019-04-23T23:40:35.575Z,14.80
2019-04-23T23:43:17.891Z,14.80
2019-04-23T23:47:59.555Z,14.80
2019-04-23T23:53:02.484Z,14.80
2019-04-23T23:55:31.934Z,14.80
2019-04-23T23:58:10.740Z,14.80
